createdAt,value
2022-08-07T00:01:44.326Z,19.50
2022-08-07T00:04:09.703Z,17.00
2022-08-07T00:06:40.903Z,15.20
2022-08-07T00:09:22.331Z,14.90
2022-08-07T00:11:55.997Z,16.10
2022-08-07T00:14:31.057Z,17.60
2022-08-07T00:17:02.381Z,15.20
2022-08-07T00:19:59.969Z,11.90
2022-08-07T00:22:24.382Z,14.10
2022-08-07T00:25:15.831Z,17.50
2022-08-07T00:27:53.485Z,12.60
2022-08-07T00:30:26.810Z,13.50
2022-08-07T00:32:58.327Z,11.10
2022-08-07T00:35:30.110Z,11.50
2022-08-07T00:37:59.857Z,13.70
2022-08-07T00:40:39.940Z,12.90
2022-08-07T00:43:59.194Z,13.10
2022-08-07T00:46:00.385Z,13.50
2022-08-07T00:48:32.325Z,16.60
2022-08-07T00:51:02.878Z,11.80
2022-08-07T00:53:39.378Z,15.50
2022-08-07T00:56:19.158Z,11.50
2022-08-07T00:58:49.972Z,16.10
2022-08-07T01:01:20.495Z,10.50
2022-08-07T01:03:56.343Z,12.70
2022-08-07T01:06:29.385Z,12.80
2022-08-07T01:09:00.920Z,13.20
2022-08-07T01:12:23.278Z,17.50
2022-08-07T01:14:28.757Z,11.80
2022-08-07T01:16:58.600Z,12.20
2022-08-07T01:19:32.484Z,14.40
2022-08-07T01:22:03.258Z,15.80
2022-08-07T01:24:39.641Z,14.90
2022-08-07T01:27:19.945Z,15.30
2022-08-07T01:29:50.673Z,17.90
2022-08-07T01:32:22.371Z,13.20
2022-08-07T01:34:53.805Z,13.40
2022-08-07T01:37:22.328Z,15.80
2022-08-07T01:39:52.960Z,16.30
2022-08-07T01:42:38.329Z,11.50
2022-08-07T01:45:18.375Z,14.70
2022-08-07T01:48:29.847Z,16.50
2022-08-07T01:50:50.486Z,14.30
2022-08-07T01:54:09.571Z,15.70
2022-08-07T01:59:03.039Z,14.80
2022-08-07T02:02:02.855Z,17.80
2022-08-07T02:04:32.109Z,13.00
2022-08-07T02:07:05.177Z,19.40
2022-08-07T02:09:52.912Z,13.00
2022-08-07T02:12:31.039Z,14.30
2022-08-07T02:15:06.074Z,14.30
2022-08-07T02:17:49.620Z,18.00
2022-08-07T02:20:23.437Z,13.50
2022-08-07T02:22:59.718Z,12.60
2022-08-07T02:26:10.822Z,12.80
2022-08-07T02:28:24.447Z,16.70
2022-08-07T02:30:54.792Z,16.70
2022-08-07T02:33:32.868Z,17.20
2022-08-07T02:36:30.779Z,20.90
2022-08-07T02:39:16.253Z,16.00
2022-08-07T02:41:54.569Z,20.60
2022-08-07T02:44:27.497Z,13.20
2022-08-07T02:47:01.812Z,19.30
2022-08-07T02:49:57.965Z,13.80
2022-08-07T02:52:30.931Z,16.60
2022-08-07T02:55:15.265Z,10.80
2022-08-07T02:58:03.034Z,20.40
2022-08-07T03:00:35.423Z,15.90
2022-08-07T03:03:07.572Z,12.60
2022-08-07T03:05:44.841Z,19.40
2022-08-07T03:08:14.268Z,13.60
2022-08-07T03:10:47.219Z,15.60
2022-08-07T03:13:20.246Z,13.20
2022-08-07T03:15:56.395Z,14.50
2022-08-07T03:18:34.856Z,16.20
2022-08-07T03:21:08.558Z,11.80
2022-08-07T03:24:20.785Z,15.20
2022-08-07T03:26:32.561Z,13.70
2022-08-07T03:29:06.444Z,11.60
2022-08-07T03:31:46.340Z,14.50
2022-08-07T03:34:18.542Z,11.80
2022-08-07T03:36:54.249Z,14.00
2022-08-07T03:40:00.045Z,16.00
2022-08-07T03:42:17.387Z,16.00
2022-08-07T03:44:53.178Z,13.50
2022-08-07T03:47:22.699Z,13.00
2022-08-07T03:49:52.507Z,14.70
2022-08-07T03:52:27.594Z,12.90
2022-08-07T03:55:07.110Z,13.30
2022-08-07T03:58:34.647Z,20.40
2022-08-07T04:00:33.651Z,17.90
2022-08-07T04:03:04.780Z,13.00
2022-08-07T04:05:40.845Z,19.00
2022-08-07T04:08:21.332Z,13.10
2022-08-07T04:10:53.868Z,15.50
2022-08-07T04:14:09.981Z,13.50
2022-08-07T04:16:30.372Z,23.60
2022-08-07T04:19:04.213Z,11.60
2022-08-07T04:21:59.479Z,16.30
2022-08-07T04:24:39.166Z,16.90
2022-08-07T04:27:15.148Z,16.80
2022-08-07T04:30:01.549Z,17.20
2022-08-07T04:32:48.070Z,12.40
2022-08-07T04:35:27.080Z,15.80
2022-08-07T04:38:03.537Z,17.30
2022-08-07T04:40:52.106Z,16.00
2022-08-07T04:44:13.259Z,13.40
2022-08-07T04:47:04.288Z,19.20
2022-08-07T04:49:42.683Z,23.70
2022-08-07T04:52:51.967Z,22.30
2022-08-07T04:58:15.618Z,13.90
2022-08-07T04:58:47.531Z,13.40
2022-08-07T05:01:50.560Z,14.70
2022-08-07T05:04:31.133Z,15.80
2022-08-07T05:07:19.507Z,16.60
2022-08-07T05:09:57.071Z,19.20
2022-08-07T05:12:35.223Z,12.00
2022-08-07T05:15:23.246Z,13.90
2022-08-07T05:18:01.308Z,12.90
2022-08-07T05:20:38.489Z,11.10
2022-08-07T05:23:15.717Z,11.20
2022-08-07T05:26:13.804Z,12.00
2022-08-07T05:28:37.193Z,13.20
2022-08-07T05:31:14.652Z,12.00
2022-08-07T05:34:01.558Z,13.90
2022-08-07T05:36:39.122Z,15.20
2022-08-07T05:40:06.920Z,12.30
2022-08-07T05:42:07.567Z,12.00
2022-08-07T05:44:41.524Z,10.10
2022-08-07T05:47:38.587Z,11.90
2022-08-07T05:50:10.166Z,12.60
2022-08-07T05:52:38.670Z,9.80
2022-08-07T05:55:10.789Z,16.80
2022-08-07T05:57:43.235Z,10.60
2022-08-07T06:00:16.473Z,10.90
2022-08-07T06:02:51.978Z,10.40
2022-08-07T06:05:28.332Z,15.70
2022-08-07T06:08:12.339Z,12.80
2022-08-07T06:10:51.384Z,11.50
2022-08-07T06:14:12.502Z,12.90
2022-08-07T06:16:15.089Z,11.10
2022-08-07T06:18:51.698Z,10.00
2022-08-07T06:22:15.116Z,9.20
2022-08-07T06:24:38.212Z,9.00
2022-08-07T06:27:03.751Z,10.80
2022-08-07T06:29:34.063Z,9.20
2022-08-07T06:32:02.671Z,9.90
2022-08-07T06:34:33.302Z,9.70
2022-08-07T06:37:02.811Z,13.70
2022-08-07T06:40:12.972Z,10.20
2022-08-07T06:42:37.276Z,11.90
2022-08-07T06:45:18.188Z,9.80
2022-08-07T06:47:58.594Z,10.30
2022-08-07T06:50:39.131Z,10.20
2022-08-07T06:54:12.131Z,11.30
2022-08-07T06:56:14.767Z,9.00
2022-08-07T07:00:13.187Z,16.20
2022-08-07T07:01:43.640Z,12.20
2022-08-07T07:04:32.424Z,12.00
2022-08-07T07:07:18.854Z,10.20
2022-08-07T07:09:50.804Z,17.40
2022-08-07T07:12:30.749Z,12.10
2022-08-07T07:15:35.832Z,16.80
2022-08-07T07:18:09.080Z,17.00
2022-08-07T07:20:46.487Z,14.00
2022-08-07T07:24:10.288Z,12.20
2022-08-07T07:26:33.837Z,11.30
2022-08-07T07:29:38.513Z,12.50
2022-08-07T07:32:03.788Z,12.50
2022-08-07T07:34:34.928Z,11.70
2022-08-07T07:37:45.099Z,8.60
2022-08-07T07:40:00.163Z,7.90
2022-08-07T07:42:32.872Z,11.80
2022-08-07T07:45:03.948Z,7.40
2022-08-07T07:47:51.751Z,9.00
2022-08-07T07:50:34.755Z,11.80
2022-08-07T07:53:20.437Z,10.20
2022-08-07T07:58:40.654Z,10.30
2022-08-07T08:02:03.943Z,12.10
2022-08-07T08:04:09.310Z,9.20
2022-08-07T08:06:50.999Z,9.50
2022-08-07T08:09:29.443Z,8.60
2022-08-07T08:12:03.812Z,7.40
2022-08-07T08:14:36.245Z,8.70
2022-08-07T08:17:55.731Z,7.80
2022-08-07T08:20:17.446Z,7.80
2022-08-07T08:23:10.955Z,8.60
2022-08-07T08:26:16.202Z,9.50
2022-08-07T08:28:46.173Z,8.30
2022-08-07T08:31:22.665Z,8.90
2022-08-07T08:34:01.362Z,6.80
2022-08-07T08:36:34.655Z,9.30
2022-08-07T08:41:58.398Z,7.00
2022-08-07T08:45:10.721Z,8.00
2022-08-07T08:48:04.856Z,6.80
2022-08-07T08:50:42.451Z,8.20
2022-08-07T08:53:52.074Z,8.40
2022-08-07T08:56:32.779Z,9.20
2022-08-07T09:01:52.821Z,6.40
2022-08-07T09:04:43.457Z,6.60
2022-08-07T09:07:11.588Z,7.50
2022-08-07T09:10:08.017Z,6.40
2022-08-07T09:12:56.973Z,7.60
2022-08-07T09:16:25.527Z,6.70
2022-08-07T09:19:52.943Z,8.30
2022-08-07T09:24:27.469Z,7.50
2022-08-07T09:25:25.079Z,6.50
2022-08-07T09:30:05.064Z,7.90
2022-08-07T09:31:38.842Z,6.80
2022-08-07T09:34:29.960Z,7.10
2022-08-07T09:37:07.757Z,7.90
2022-08-07T09:39:54.834Z,7.10
2022-08-07T09:42:53.457Z,8.70
2022-08-07T09:47:27.829Z,11.00
2022-08-07T09:48:55.888Z,7.30
2022-08-07T09:52:34.228Z,6.70
2022-08-07T09:56:04.375Z,6.90
2022-08-07T09:59:37.109Z,7.30
2022-08-07T10:02:29.795Z,6.80
2022-08-07T10:05:14.827Z,7.30
2022-08-07T10:08:04.557Z,8.70
2022-08-07T10:12:00.167Z,6.80
2022-08-07T10:14:01.707Z,8.30
2022-08-07T10:16:43.167Z,7.40
2022-08-07T10:19:31.531Z,7.20
2022-08-07T10:22:45.217Z,8.00
2022-08-07T10:25:22.813Z,10.20
2022-08-07T10:28:08.274Z,9.10
2022-08-07T10:30:52.274Z,9.50
2022-08-07T10:34:14.483Z,7.30
2022-08-07T10:36:54.949Z,9.30
2022-08-07T10:40:14.993Z,9.70
2022-08-07T10:43:15.472Z,8.10
2022-08-07T10:45:58.014Z,14.10
2022-08-07T10:48:39.228Z,8.30
2022-08-07T10:52:01.494Z,7.60
2022-08-07T10:54:53.535Z,9.30
2022-08-07T10:57:39.592Z,8.20
2022-08-07T11:00:36.802Z,6.50
2022-08-07T11:03:28.147Z,7.20
2022-08-07T11:06:22.169Z,6.10
2022-08-07T11:09:03.102Z,6.50
2022-08-07T11:11:40.099Z,6.90
2022-08-07T11:14:57.414Z,6.00
2022-08-07T11:17:43.344Z,5.80
2022-08-07T11:21:05.219Z,8.60
2022-08-07T11:24:14.183Z,6.80
2022-08-07T11:26:50.886Z,7.80
2022-08-07T11:30:18.356Z,7.80
2022-08-07T11:33:53.673Z,7.30
2022-08-07T11:36:37.903Z,8.10
2022-08-07T11:39:14.642Z,7.50
2022-08-07T11:42:08.246Z,9.70
2022-08-07T11:45:36.091Z,7.00
2022-08-07T11:48:29.400Z,8.20
2022-08-07T11:51:41.904Z,8.30
2022-08-07T11:54:56.361Z,9.50
2022-08-07T11:58:00.344Z,8.60
2022-08-07T12:00:48.873Z,7.00
2022-08-07T12:04:09.456Z,7.90
2022-08-07T12:07:00.997Z,7.50
2022-08-07T12:09:54.173Z,7.20
2022-08-07T12:12:41.714Z,10.50
2022-08-07T12:15:46.714Z,7.10
2022-08-07T12:18:29.878Z,6.60
2022-08-07T12:21:03.252Z,6.90
2022-08-07T12:24:04.964Z,6.10
2022-08-07T12:26:46.123Z,5.80
2022-08-07T12:29:37.674Z,7.10
2022-08-07T12:32:31.749Z,6.50
2022-08-07T12:35:03.082Z,7.40
2022-08-07T12:38:09.661Z,6.40
2022-08-07T12:40:47.091Z,6.80
2022-08-07T12:44:04.498Z,9.70
2022-08-07T12:46:26.627Z,6.90
2022-08-07T12:49:51.803Z,5.90
2022-08-07T12:52:38.640Z,13.70
2022-08-07T12:55:18.341Z,7.70
2022-08-07T12:58:00.781Z,8.40
2022-08-07T13:01:12.695Z,7.90
2022-08-07T13:04:31.718Z,6.20
2022-08-07T13:08:14.336Z,8.00
2022-08-07T13:10:39.497Z,9.40
2022-08-07T13:13:48.409Z,6.00
2022-08-07T13:16:53.735Z,5.50
2022-08-07T13:19:51.074Z,7.60
2022-08-07T13:22:52.394Z,7.00
2022-08-07T13:25:34.955Z,6.90
2022-08-07T13:28:14.213Z,6.60
2022-08-07T13:31:01.924Z,5.80
2022-08-07T13:34:31.725Z,7.40
2022-08-07T13:36:45.463Z,7.40
2022-08-07T13:40:35.033Z,6.50
2022-08-07T13:42:40.898Z,7.70
2022-08-07T13:46:07.094Z,8.40
2022-08-07T13:48:08.262Z,8.00
2022-08-07T13:50:45.096Z,6.50
2022-08-07T13:53:59.718Z,8.10
2022-08-07T13:56:35.734Z,7.10
2022-08-07T13:59:21.684Z,7.50
2022-08-07T14:02:12.885Z,7.80
2022-08-07T14:04:49.422Z,6.80
2022-08-07T14:07:23.054Z,8.70
2022-08-07T14:10:02.858Z,8.40
2022-08-07T14:12:49.490Z,10.10
2022-08-07T14:15:25.750Z,9.80
2022-08-07T14:18:23.917Z,7.30
2022-08-07T14:20:54.537Z,11.00
2022-08-07T14:23:59.018Z,10.20
2022-08-07T14:26:28.335Z,18.80
2022-08-07T14:29:10.584Z,9.40
2022-08-07T14:31:53.325Z,7.60
2022-08-07T14:37:19.254Z,8.60
2022-08-07T14:40:17.436Z,9.70
2022-08-07T14:43:01.497Z,8.60
2022-08-07T14:45:49.637Z,9.20
2022-08-07T14:48:22.391Z,8.50
2022-08-07T14:51:00.128Z,9.60
2022-08-07T14:56:30.613Z,10.50
2022-08-07T14:59:13.668Z,17.30
2022-08-07T15:05:01.693Z,8.50
2022-08-07T15:07:51.020Z,7.50
2022-08-07T15:10:29.566Z,8.20
2022-08-07T15:13:12.276Z,10.90
2022-08-07T15:18:45.514Z,8.20
2022-08-07T15:21:44.053Z,9.60
2022-08-07T15:25:13.162Z,6.90
2022-08-07T15:27:10.410Z,6.90
2022-08-07T15:30:08.843Z,9.10
2022-08-07T15:32:39.622Z,7.00
2022-08-07T15:35:19.687Z,8.60
2022-08-07T15:41:23.502Z,8.60
2022-08-07T15:44:01.041Z,7.60
2022-08-07T15:46:39.329Z,8.70
2022-08-07T15:50:04.929Z,8.20
2022-08-07T15:52:29.638Z,10.00
2022-08-07T15:55:08.666Z,7.10
2022-08-07T15:57:48.682Z,8.40
2022-08-07T16:00:31.079Z,8.10
2022-08-07T16:03:21.533Z,8.80
2022-08-07T16:06:25.496Z,8.40
2022-08-07T16:09:22.439Z,8.10
2022-08-07T16:12:13.286Z,7.20
2022-08-07T16:15:54.521Z,7.70
2022-08-07T16:18:59.720Z,8.60
2022-08-07T16:22:31.549Z,9.40
2022-08-07T16:25:23.395Z,7.30
2022-08-07T16:30:06.346Z,7.30
2022-08-07T16:32:03.898Z,8.10
2022-08-07T16:34:41.714Z,9.40
2022-08-07T16:38:04.607Z,17.20
2022-08-07T16:40:28.215Z,8.70
2022-08-07T16:43:07.742Z,7.90
2022-08-07T16:46:47.136Z,8.60
2022-08-07T16:50:20.100Z,8.40
2022-08-07T16:52:51.834Z,9.60
2022-08-07T16:55:47.228Z,9.70
2022-08-07T16:58:16.144Z,10.60
2022-08-07T17:01:19.867Z,7.80
2022-08-07T17:04:00.035Z,11.40
2022-08-07T17:07:03.305Z,9.30
2022-08-07T17:10:06.560Z,8.80
2022-08-07T17:12:53.059Z,8.40
2022-08-07T17:15:44.684Z,13.80
2022-08-07T17:18:41.497Z,11.00
2022-08-07T17:21:24.588Z,8.90
2022-08-07T17:24:25.092Z,8.90
2022-08-07T17:27:29.696Z,8.70
2022-08-07T17:30:16.122Z,7.70
2022-08-07T17:34:08.846Z,9.10
2022-08-07T17:36:27.416Z,7.60
2022-08-07T17:39:19.940Z,8.10
2022-08-07T17:42:29.916Z,7.90
2022-08-07T17:44:59.658Z,9.80
2022-08-07T17:47:44.665Z,9.60
2022-08-07T17:50:50.333Z,11.30
2022-08-07T17:54:01.493Z,11.40
2022-08-07T17:56:49.366Z,8.10
2022-08-07T17:59:24.446Z,9.40
2022-08-07T18:01:56.821Z,8.40
2022-08-07T18:04:51.997Z,9.00
2022-08-07T18:07:37.846Z,10.90
2022-08-07T18:12:07.562Z,10.20
2022-08-07T18:13:41.773Z,9.30
2022-08-07T18:16:33.066Z,9.00
2022-08-07T18:21:10.626Z,9.30
2022-08-07T18:22:26.914Z,12.70
2022-08-07T18:25:23.986Z,11.10
2022-08-07T18:28:35.434Z,11.10
2022-08-07T18:31:18.422Z,9.20
2022-08-07T18:34:35.741Z,10.40
2022-08-07T18:40:08.055Z,9.90
2022-08-07T18:42:44.276Z,11.80
2022-08-07T18:45:40.274Z,7.50
2022-08-07T18:49:23.729Z,13.00
2022-08-07T18:52:34.631Z,9.70
2022-08-07T18:54:49.818Z,10.70
2022-08-07T18:57:38.056Z,7.40
2022-08-07T19:00:32.564Z,10.70
2022-08-07T19:03:15.917Z,11.90
2022-08-07T19:06:03.825Z,8.50
2022-08-07T19:08:35.381Z,7.40
2022-08-07T19:11:34.865Z,9.70
2022-08-07T19:14:11.476Z,12.10
2022-08-07T19:17:07.921Z,12.60
2022-08-07T19:19:41.948Z,33.50
2022-08-07T19:22:30.889Z,29.10
2022-08-07T19:25:06.461Z,21.00
2022-08-07T19:30:54.164Z,15.20
2022-08-07T19:31:02.236Z,16.80
2022-08-07T19:37:22.255Z,10.10
2022-08-07T20:08:07.690Z,10.20
2022-08-07T20:11:01.923Z,10.70
2022-08-07T20:14:13.538Z,12.80
2022-08-07T20:18:04.360Z,13.10
2022-08-07T20:22:04.105Z,11.30
2022-08-07T20:25:01.867Z,12.30
2022-08-07T20:27:47.826Z,11.20
2022-08-07T20:30:22.448Z,11.20
2022-08-07T20:32:56.182Z,14.60
2022-08-07T20:35:34.714Z,12.90
2022-08-07T20:38:11.381Z,16.60
2022-08-07T20:40:51.591Z,11.50
2022-08-07T20:43:27.103Z,11.60
2022-08-07T20:46:26.517Z,11.00
2022-08-07T20:49:54.247Z,11.80
2022-08-07T20:51:49.000Z,13.00
2022-08-07T20:54:30.272Z,11.10
2022-08-07T20:57:05.536Z,12.30
2022-08-07T21:00:07.974Z,13.60
2022-08-07T21:02:54.508Z,10.90
2022-08-07T21:05:51.233Z,12.40
2022-08-07T21:08:39.211Z,12.90
2022-08-07T21:11:21.944Z,13.90
2022-08-07T21:14:32.091Z,14.00
2022-08-07T21:16:56.907Z,16.10
2022-08-07T21:19:51.453Z,13.50
2022-08-07T21:22:33.253Z,12.20
2022-08-07T21:28:07.836Z,10.20
2022-08-07T21:30:50.365Z,9.70
2022-08-07T21:33:38.503Z,10.60
2022-08-07T21:36:42.743Z,8.60
2022-08-07T21:39:51.742Z,10.00
2022-08-07T21:42:48.859Z,11.40
2022-08-07T21:46:05.186Z,12.20
2022-08-07T21:48:27.692Z,10.50
2022-08-07T21:51:25.442Z,13.40
2022-08-07T21:54:22.386Z,11.90
2022-08-07T21:57:31.214Z,11.90
2022-08-07T22:00:22.732Z,13.50
2022-08-07T22:03:05.581Z,10.40
2022-08-07T22:05:48.314Z,11.00
2022-08-07T22:10:51.002Z,12.60
2022-08-07T22:13:24.189Z,8.70
2022-08-07T22:16:38.624Z,9.60
2022-08-07T22:19:08.576Z,10.40
2022-08-07T22:22:01.729Z,9.70
2022-08-07T22:25:03.248Z,13.50
2022-08-07T22:28:07.560Z,9.60
2022-08-07T22:30:26.490Z,10.30
2022-08-07T22:33:09.661Z,12.00
2022-08-07T22:36:06.712Z,11.50
2022-08-07T22:38:50.632Z,11.30
2022-08-07T22:42:03.616Z,10.50
2022-08-07T22:44:26.606Z,10.70
2022-08-07T22:47:32.781Z,12.00
2022-08-07T22:50:38.006Z,9.60
2022-08-07T22:53:19.315Z,11.50
2022-08-07T22:56:13.182Z,10.00
2022-08-07T22:59:17.600Z,10.40
2022-08-07T23:02:06.958Z,9.20
2022-08-07T23:04:58.548Z,9.30
2022-08-07T23:08:24.419Z,11.20
2022-08-07T23:11:20.900Z,12.30
2022-08-07T23:14:16.613Z,10.10
2022-08-07T23:16:55.272Z,13.00
2022-08-07T23:19:51.328Z,11.20
2022-08-07T23:22:39.793Z,11.70
2022-08-07T23:25:29.316Z,9.60
2022-08-07T23:28:35.789Z,8.80
2022-08-07T23:32:49.621Z,10.20
2022-08-07T23:35:01.060Z,9.50
2022-08-07T23:38:01.230Z,12.80
2022-08-07T23:40:51.841Z,11.20
2022-08-07T23:43:37.884Z,8.40
2022-08-07T23:46:23.882Z,12.20
2022-08-07T23:49:50.186Z,9.80
2022-08-07T23:53:06.315Z,9.80
2022-08-07T23:55:52.547Z,14.30
2022-08-07T23:58:37.857Z,9.30
